Time;durP1;ratioP1;P1;durP2;ratioP2;P2;SDS_P1;SDS_P2;PMS_P1;PMS_P2;Temp;Humidity;BMP_temperature;BMP_pressure;BME280_temperature;BME280_humidity;BME280_pressure;Samples;Min_cycle;Max_cycle;Signal;HPM_P1;HPM_P2
2022/03/06 00:02:14;;;;;;;6.90;3.40;;;0.60;98.10;;;;;;5069866;28;20378;-73
2022/03/06 00:04:40;;;;;;;8.02;3.63;;;0.60;98.30;;;;;;5068992;28;20032;-72
2022/03/06 00:07:06;;;;;;;5.45;3.33;;;0.60;97.30;;;;;;5071523;28;20032;-74
2022/03/06 00:09:31;;;;;;;5.35;3.10;;;0.60;97.20;;;;;;5071639;28;20031;-73
2022/03/06 00:11:57;;;;;;;4.97;2.97;;;0.50;96.80;;;;;;5071287;28;20032;-72
2022/03/06 00:14:23;;;;;;;5.93;3.10;;;0.50;97.00;;;;;;5070005;28;20028;-79
2022/03/06 00:16:51;;;;;;;5.68;2.75;;;0.50;96.80;;;;;;5071020;28;20035;-72
2022/03/06 00:19:18;;;;;;;5.25;2.67;;;0.60;97.00;;;;;;5070145;28;20044;-73
2022/03/06 00:21:45;;;;;;;5.03;2.72;;;0.50;96.90;;;;;;5071190;28;20032;-73
2022/03/06 00:24:11;;;;;;;5.03;2.90;;;0.60;96.30;;;;;;5071138;28;20493;-74
2022/03/06 00:26:37;;;;;;;5.43;2.90;;;0.50;96.00;;;;;;5069317;28;20052;-72
2022/03/06 00:29:04;;;;;;;5.72;2.88;;;0.50;96.00;;;;;;5069917;28;20056;-73
2022/03/06 00:31:31;;;;;;;4.65;2.65;;;0.50;95.50;;;;;;5069326;28;20551;-71
2022/03/06 00:33:57;;;;;;;5.22;2.80;;;0.50;95.50;;;;;;5069603;28;20393;-75
2022/03/06 00:36:22;;;;;;;4.30;2.45;;;0.50;95.50;;;;;;5071307;28;20036;-73
2022/03/06 00:38:48;;;;;;;4.22;2.45;;;0.50;95.60;;;;;;5070782;28;20104;-74
2022/03/06 00:41:15;;;;;;;3.47;2.20;;;0.50;95.90;;;;;;5070885;28;20429;-74
2022/03/06 00:43:42;;;;;;;3.08;1.85;;;0.50;96.10;;;;;;5070977;28;20044;-73
2022/03/06 00:46:08;;;;;;;4.10;2.45;;;0.50;96.20;;;;;;5071162;28;20047;-74
2022/03/06 00:48:34;;;;;;;3.55;2.10;;;0.50;95.80;;;;;;5072470;28;20032;-72
2022/03/06 00:51:00;;;;;;;2.78;2.05;;;0.50;95.80;;;;;;5073885;28;20024;-73
2022/03/06 00:53:26;;;;;;;2.33;1.70;;;0.50;95.90;;;;;;5074773;28;20032;-71
2022/03/06 00:55:52;;;;;;;3.30;2.00;;;0.50;96.30;;;;;;5074402;28;20036;-72
2022/03/06 00:58:17;;;;;;;2.83;1.90;;;0.50;96.70;;;;;;5075025;28;20016;-73
2022/03/06 01:00:47;;;;;;;2.33;1.90;;;0.60;97.00;;;;;;5074460;28;20541;-75
2022/03/06 01:03:23;;;;;;;3.55;2.17;;;0.60;96.90;;;;;;5073579;28;20020;-72
2022/03/06 01:05:49;;;;;;;4.35;2.50;;;0.60;96.90;;;;;;5074765;28;20505;-74
2022/03/06 01:08:15;;;;;;;4.68;2.75;;;0.60;97.20;;;;;;5074829;28;20127;-72
2022/03/06 01:10:44;;;;;;;3.80;2.50;;;0.60;97.30;;;;;;5072800;28;20031;-75
2022/03/06 01:13:11;;;;;;;4.35;2.45;;;0.60;97.50;;;;;;5073519;28;20024;-73
2022/03/06 01:15:37;;;;;;;3.88;2.60;;;0.70;97.60;;;;;;5073273;28;20047;-73
2022/03/06 01:18:08;;;;;;;5.30;2.70;;;0.60;97.60;;;;;;5074628;28;20024;-74
2022/03/06 01:20:35;;;;;;;4.60;2.92;;;0.60;97.70;;;;;;5072874;28;20028;-72
2022/03/06 01:23:01;;;;;;;5.18;2.78;;;0.60;97.90;;;;;;5072879;28;20549;-72
2022/03/06 01:25:28;;;;;;;6.35;2.88;;;0.60;98.00;;;;;;5069183;28;20081;-72
2022/03/06 01:27:53;;;;;;;4.20;2.45;;;0.60;98.00;;;;;;5036471;28;20042;-74
2022/03/06 01:30:21;;;;;;;5.53;3.22;;;0.60;97.90;;;;;;5036430;28;20125;-73
2022/03/06 01:32:50;;;;;;;5.05;2.85;;;0.60;97.80;;;;;;5053826;28;20108;-73
2022/03/06 01:35:17;;;;;;;7.28;3.22;;;0.60;97.80;;;;;;5053666;28;20488;-73
2022/03/06 01:37:42;;;;;;;5.25;3.15;;;0.60;97.80;;;;;;5054325;28;20020;-73
2022/03/06 01:40:10;;;;;;;4.40;2.78;;;0.50;97.90;;;;;;5054426;28;20134;-73
2022/03/06 01:42:41;;;;;;;6.13;3.10;;;0.60;98.00;;;;;;5035945;28;20075;-72
2022/03/06 01:45:08;;;;;;;;;;;0.50;97.80;;;;;;5054212;28;20052;-74
2022/03/06 01:47:42;;;;;;;5.93;2.90;;;0.50;96.20;;;;;;5035906;28;20374;-73
2022/03/06 01:50:19;;;;;;;3.80;2.65;;;0.50;97.60;;;;;;5053441;28;20475;-74
2022/03/06 01:52:46;;;;;;;4.82;3.08;;;0.40;97.50;;;;;;5035922;28;20482;-73
2022/03/06 01:55:13;;;;;;;3.80;2.55;;;0.50;98.00;;;;;;5035913;28;20048;-72
2022/03/06 01:57:43;;;;;;;4.25;2.63;;;0.40;98.00;;;;;;5035537;28;20036;-72
2022/03/06 02:00:14;;;;;;;5.20;2.97;;;0.50;98.00;;;;;;5053553;28;20028;-74
2022/03/06 02:02:41;;;;;;;6.25;3.40;;;0.50;98.00;;;;;;5035265;28;20025;-73
2022/03/06 02:05:08;;;;;;;6.50;3.30;;;0.50;98.10;;;;;;5053558;28;20029;-73
2022/03/06 02:07:34;;;;;;;5.18;3.33;;;0.50;98.10;;;;;;5034991;28;20033;-74
2022/03/06 02:10:01;;;;;;;5.45;3.00;;;0.50;98.10;;;;;;5035765;28;20064;-74
2022/03/06 02:12:27;;;;;;;5.88;3.63;;;0.50;97.80;;;;;;5053239;28;20031;-74
2022/03/06 02:15:01;;;;;;;5.07;2.90;;;0.50;97.80;;;;;;5053248;28;20043;-75
2022/03/06 02:17:27;;;;;;;5.32;3.28;;;0.50;97.80;;;;;;5053556;28;20051;-74
2022/03/06 02:19:59;;;;;;;6.47;2.72;;;0.50;97.80;;;;;;5053284;28;20514;-75
2022/03/06 02:22:31;;;;;;;5.85;3.00;;;0.50;97.70;;;;;;5035284;28;20040;-73
2022/03/06 02:24:59;;;;;;;4.70;2.83;;;0.50;97.90;;;;;;5035018;28;20025;-73
2022/03/06 02:27:25;;;;;;;4.47;2.65;;;0.50;98.10;;;;;;5034971;28;20082;-74
2022/03/06 02:29:52;;;;;;;4.65;2.60;;;0.50;98.00;;;;;;5053113;28;20033;-73
2022/03/06 02:32:21;;;;;;;4.45;2.83;;;0.60;98.00;;;;;;5052996;28;20025;-73
2022/03/06 02:34:48;;;;;;;5.40;2.85;;;0.60;98.00;;;;;;5052639;28;20083;-74
2022/03/06 02:37:17;;;;;;;5.28;3.05;;;0.50;97.70;;;;;;5053097;28;20029;-77
2022/03/06 02:39:44;;;;;;;3.92;2.63;;;0.50;97.60;;;;;;5035089;28;20115;-73
2022/03/06 02:42:10;;;;;;;4.22;2.60;;;0.50;98.00;;;;;;5034695;28;20115;-73
2022/03/06 02:44:37;;;;;;;3.70;2.42;;;0.50;98.20;;;;;;5034946;28;20025;-73
2022/03/06 02:47:03;;;;;;;4.20;2.67;;;0.50;98.30;;;;;;5052560;28;20142;-73
2022/03/06 02:49:30;;;;;;;4.68;2.83;;;0.50;98.40;;;;;;5052616;28;20040;-73
2022/03/06 02:51:55;;;;;;;4.15;2.83;;;0.50;98.60;;;;;;5034739;28;20028;-75
2022/03/06 02:54:21;;;;;;;6.82;3.67;;;0.40;98.60;;;;;;5052327;28;20153;-73
2022/03/06 02:56:48;;;;;;;6.00;3.03;;;0.40;98.50;;;;;;5034491;28;20029;-73
2022/03/06 02:59:14;;;;;;;4.93;3.13;;;0.40;98.60;;;;;;5052473;28;20025;-74
2022/03/06 03:01:41;;;;;;;5.30;3.30;;;0.40;98.80;;;;;;5052566;28;20108;-74
2022/03/06 03:04:08;;;;;;;5.25;3.38;;;0.40;98.80;;;;;;5034569;28;20435;-74
2022/03/06 03:06:34;;;;;;;5.93;3.40;;;0.40;98.90;;;;;;5035636;28;20032;-73
2022/03/06 03:09:00;;;;;;;4.53;2.90;;;0.40;99.10;;;;;;5054855;28;20478;-73
2022/03/06 03:11:26;;;;;;;5.38;3.25;;;0.40;99.30;;;;;;5054266;28;20029;-73
2022/03/06 03:13:52;;;;;;;5.88;3.08;;;0.40;99.20;;;;;;5036905;28;20028;-72
2022/03/06 03:16:18;;;;;;;4.90;2.70;;;0.30;99.10;;;;;;5036599;28;20029;-73
2022/03/06 03:18:43;;;;;;;4.65;2.83;;;0.30;99.20;;;;;;5036767;28;20052;-73
2022/03/06 03:21:09;;;;;;;4.25;2.80;;;0.30;99.30;;;;;;5055315;28;20425;-73
2022/03/06 03:23:35;;;;;;;4.72;2.70;;;0.30;99.40;;;;;;5054424;28;20414;-73
2022/03/06 03:26:00;;;;;;;5.18;2.90;;;0.30;99.40;;;;;;5052070;28;20084;-73
2022/03/06 03:28:26;;;;;;;4.22;2.70;;;0.30;99.60;;;;;;5074252;28;20025;-73
2022/03/06 03:30:52;;;;;;;5.80;3.30;;;0.30;99.50;;;;;;5074653;28;20508;-72
2022/03/06 03:33:18;;;;;;;7.63;3.72;;;0.30;99.50;;;;;;5073328;28;20481;-72
2022/03/06 03:35:43;;;;;;;8.40;3.63;;;0.20;99.20;;;;;;5074622;28;20039;-72
2022/03/06 03:38:09;;;;;;;6.57;3.25;;;0.20;99.40;;;;;;5074171;28;20157;-73
2022/03/06 03:40:35;;;;;;;6.65;3.60;;;0.20;99.50;;;;;;5074343;28;20512;-73
2022/03/06 03:43:00;;;;;;;7.70;4.35;;;0.20;99.50;;;;;;5074200;28;20032;-73
2022/03/06 03:45:26;;;;;;;9.13;3.85;;;0.20;99.50;;;;;;5072718;28;20020;-73
2022/03/06 03:47:52;;;;;;;6.68;3.45;;;0.20;99.50;;;;;;5073988;28;20028;-73
2022/03/06 03:50:17;;;;;;;5.38;2.80;;;0.20;99.50;;;;;;5072822;28;20381;-73
2022/03/06 03:52:43;;;;;;;5.85;2.92;;;0.20;99.60;;;;;;5073345;28;20473;-73
2022/03/06 03:55:09;;;;;;;4.65;3.08;;;0.20;99.60;;;;;;5072760;28;20409;-73
2022/03/06 03:57:35;;;;;;;4.22;2.60;;;0.20;99.50;;;;;;5074230;28;20085;-73
2022/03/06 04:00:01;;;;;;;3.60;2.42;;;0.20;99.50;;;;;;5073933;28;20063;-73
2022/03/06 04:02:26;;;;;;;3.78;2.58;;;0.20;99.50;;;;;;5073701;28;20032;-73
2022/03/06 04:04:53;;;;;;;4.15;2.58;;;0.20;99.70;;;;;;5072663;28;20032;-73
2022/03/06 04:07:19;;;;;;;4.13;2.50;;;0.20;99.50;;;;;;5074080;28;20522;-73
2022/03/06 04:09:45;;;;;;;3.13;2.20;;;0.20;99.50;;;;;;5073814;28;20096;-73
2022/03/06 04:12:10;;;;;;;4.05;2.47;;;0.20;99.50;;;;;;5072668;28;20043;-73
2022/03/06 04:14:36;;;;;;;3.33;2.30;;;0.20;99.60;;;;;;5073985;28;20493;-72
2022/03/06 04:17:02;;;;;;;4.85;2.60;;;0.20;99.50;;;;;;5072725;28;20434;-72
2022/03/06 04:19:28;;;;;;;4.13;2.75;;;0.10;99.40;;;;;;5073538;28;20512;-72
2022/03/06 04:21:54;;;;;;;4.10;2.75;;;0.10;99.30;;;;;;5073550;28;20492;-73
2022/03/06 04:24:19;;;;;;;3.45;2.38;;;0.10;99.30;;;;;;5072174;28;20078;-72
2022/03/06 04:26:45;;;;;;;3.40;2.45;;;0.10;99.40;;;;;;5071998;28;20098;-73
2022/03/06 04:29:11;;;;;;;3.92;2.45;;;0.10;99.50;;;;;;5073461;28;20032;-73
2022/03/06 04:31:37;;;;;;;3.35;2.30;;;0.20;99.60;;;;;;5073621;28;20024;-72
2022/03/06 04:34:03;;;;;;;3.55;2.20;;;0.20;99.90;;;;;;5073622;28;20424;-73
2022/03/06 04:36:29;;;;;;;2.95;1.80;;;0.20;99.90;;;;;;5072515;28;20470;-73
2022/03/06 04:38:55;;;;;;;2.40;2.03;;;0.30;99.90;;;;;;5073250;28;20056;-73
2022/03/06 04:41:21;;;;;;;4.07;2.17;;;0.30;99.60;;;;;;5072278;28;20036;-73
2022/03/06 04:43:47;;;;;;;3.70;2.33;;;0.30;99.70;;;;;;5073804;28;20017;-73
2022/03/06 04:46:12;;;;;;;2.70;2.00;;;0.30;99.70;;;;;;5073191;28;20044;-73
2022/03/06 04:48:38;;;;;;;2.83;2.03;;;0.30;99.60;;;;;;5072133;28;20111;-73
2022/03/06 04:51:04;;;;;;;3.58;2.20;;;0.40;99.60;;;;;;5073734;28;20485;-73
2022/03/06 04:53:31;;;;;;;3.90;2.45;;;0.40;99.50;;;;;;5071985;28;20112;-73
2022/03/06 04:55:56;;;;;;;4.13;2.63;;;0.40;99.40;;;;;;5072167;28;20039;-74
2022/03/06 04:58:24;;;;;;;4.65;2.63;;;0.40;99.30;;;;;;5071899;28;20024;-73
2022/03/06 05:00:50;;;;;;;4.43;2.60;;;0.40;99.40;;;;;;5073083;28;20454;-73
2022/03/06 05:03:16;;;;;;;5.70;3.17;;;0.40;99.40;;;;;;5073590;28;20033;-74
2022/03/06 05:05:42;;;;;;;4.53;2.70;;;0.40;99.50;;;;;;5071857;28;20082;-73
2022/03/06 05:08:08;;;;;;;6.25;3.00;;;0.40;99.60;;;;;;5072004;28;20033;-72
2022/03/06 05:10:35;;;;;;;5.07;2.90;;;0.40;99.60;;;;;;5071939;28;20021;-72
2022/03/06 05:13:01;;;;;;;4.50;2.58;;;0.40;99.60;;;;;;5071697;28;20097;-74
2022/03/06 05:15:27;;;;;;;5.10;2.97;;;0.50;99.60;;;;;;5073220;28;20124;-73
2022/03/06 05:17:53;;;;;;;5.45;3.03;;;0.50;99.30;;;;;;5072989;28;20056;-73
2022/03/06 05:20:19;;;;;;;4.75;2.75;;;0.50;99.20;;;;;;5071637;28;20059;-73
2022/03/06 05:22:45;;;;;;;4.68;2.90;;;0.50;99.40;;;;;;5071754;28;20033;-73
2022/03/06 05:25:11;;;;;;;6.97;2.95;;;0.50;99.10;;;;;;5070037;28;20043;-73
2022/03/06 05:27:37;;;;;;;4.90;2.60;;;0.60;98.80;;;;;;5034720;28;20044;-73
2022/03/06 05:30:05;;;;;;;4.72;2.78;;;0.60;99.00;;;;;;5053125;28;20031;-73
2022/03/06 05:32:31;;;;;;;5.20;2.78;;;0.60;99.00;;;;;;5052718;28;20056;-73
2022/03/06 05:34:57;;;;;;;4.35;2.63;;;0.70;98.40;;;;;;5056187;28;20021;-72
2022/03/06 05:37:23;;;;;;;4.75;2.60;;;0.70;98.60;;;;;;5038556;28;20413;-72
2022/03/06 05:39:48;;;;;;;5.50;2.90;;;0.80;98.80;;;;;;5038168;28;20124;-73
2022/03/06 05:42:14;;;;;;;6.47;3.47;;;0.80;98.80;;;;;;5056361;28;20402;-73
2022/03/06 05:44:41;;;;;;;7.60;4.05;;;0.90;98.80;;;;;;5039209;28;20371;-73
2022/03/06 05:47:07;;;;;;;7.53;4.18;;;1.00;98.70;;;;;;5038318;28;20040;-73
2022/03/06 05:49:33;;;;;;;10.35;4.03;;;1.10;98.10;;;;;;5038404;28;20053;-72
2022/03/06 05:51:59;;;;;;;9.45;4.43;;;1.10;98.10;;;;;;5038178;28;20359;-72
2022/03/06 05:54:24;;;;;;;8.43;4.20;;;1.20;97.80;;;;;;5038239;28;20036;-73
2022/03/06 05:56:50;;;;;;;8.93;3.63;;;1.20;97.90;;;;;;5056140;28;20025;-73
2022/03/06 05:59:16;;;;;;;5.90;3.28;;;1.30;97.70;;;;;;5056787;28;20371;-73
2022/03/06 06:01:42;;;;;;;6.43;3.40;;;1.40;97.80;;;;;;5055969;28;20401;-73
2022/03/06 06:04:07;;;;;;;5.40;2.92;;;1.40;96.70;;;;;;5055980;28;20409;-73
2022/03/06 06:06:33;;;;;;;4.80;2.67;;;1.50;96.80;;;;;;5038231;28;20056;-73
2022/03/06 06:08:59;;;;;;;4.35;2.67;;;1.60;97.00;;;;;;5055735;28;20371;-73
2022/03/06 06:11:25;;;;;;;3.63;2.25;;;1.70;97.00;;;;;;5037890;28;20455;-73
2022/03/06 06:13:51;;;;;;;6.45;3.40;;;1.70;96.50;;;;;;5037950;28;20140;-72
2022/03/06 06:16:17;;;;;;;7.85;3.67;;;1.80;95.70;;;;;;5055806;28;20087;-73
2022/03/06 06:18:43;;;;;;;7.75;3.40;;;1.90;95.10;;;;;;5038027;28;20059;-72
2022/03/06 06:21:10;;;;;;;6.07;3.10;;;1.90;94.70;;;;;;5037840;28;20378;-73
2022/03/06 06:23:36;;;;;;;5.15;2.70;;;2.00;94.60;;;;;;5037884;28;20025;-72
2022/03/06 06:26:02;;;;;;;4.10;2.40;;;2.10;93.80;;;;;;5053306;28;20110;-72
2022/03/06 06:28:28;;;;;;;3.42;1.92;;;2.10;93.20;;;;;;5075523;28;20021;-73
2022/03/06 06:30:54;;;;;;;3.85;2.45;;;2.20;93.70;;;;;;5074051;28;20424;-73
2022/03/06 06:33:19;;;;;;;4.22;2.70;;;2.30;92.60;;;;;;5075449;28;20099;-73
2022/03/06 06:35:45;;;;;;;4.55;2.80;;;2.40;92.60;;;;;;5075190;28;20029;-73
2022/03/06 06:38:11;;;;;;;5.15;2.70;;;2.50;92.20;;;;;;5074222;28;20055;-73
2022/03/06 06:40:37;;;;;;;4.80;2.70;;;2.60;91.90;;;;;;5073547;28;20029;-72
2022/03/06 06:43:03;;;;;;;3.75;2.38;;;2.70;91.80;;;;;;5075482;28;20465;-74
2022/03/06 06:45:28;;;;;;;4.20;2.60;;;2.80;90.80;;;;;;5073208;28;20023;-74
2022/03/06 06:47:54;;;;;;;5.88;3.15;;;2.80;90.00;;;;;;5074991;28;20025;-74
2022/03/06 06:50:20;;;;;;;6.22;3.30;;;2.80;90.00;;;;;;5073860;28;20166;-72
2022/03/06 06:52:46;;;;;;;3.88;2.50;;;2.90;89.70;;;;;;5075129;28;20029;-75
2022/03/06 06:55:11;;;;;;;3.28;2.08;;;2.90;89.20;;;;;;5073675;28;20039;-75
2022/03/06 06:57:37;;;;;;;3.20;2.15;;;2.90;88.90;;;;;;5074962;28;20021;-74
2022/03/06 07:00:05;;;;;;;3.47;2.50;;;3.00;89.40;;;;;;5074261;28;20028;-74
2022/03/06 07:02:31;;;;;;;2.95;2.17;;;3.00;87.80;;;;;;5073328;28;20051;-74
2022/03/06 07:04:57;;;;;;;3.25;2.30;;;3.10;89.10;;;;;;5074939;28;20517;-74
2022/03/06 07:07:24;;;;;;;3.33;2.20;;;3.10;88.50;;;;;;5072987;28;20432;-75
2022/03/06 07:09:50;;;;;;;2.95;2.35;;;3.20;87.10;;;;;;5073445;28;20035;-75
2022/03/06 07:12:15;;;;;;;3.35;2.25;;;3.20;85.80;;;;;;5074697;28;20095;-75
2022/03/06 07:14:41;;;;;;;4.15;2.58;;;3.30;87.10;;;;;;5074725;28;20032;-79
2022/03/06 07:17:07;;;;;;;3.88;2.47;;;3.40;85.10;;;;;;5072848;28;20371;-75
2022/03/06 07:19:33;;;;;;;3.40;2.20;;;3.40;84.30;;;;;;5072856;28;20071;-76
2022/03/06 07:21:59;;;;;;;3.45;2.22;;;3.50;83.80;;;;;;5072717;28;20060;-75
2022/03/06 07:24:26;;;;;;;3.22;2.00;;;3.60;85.00;;;;;;5072915;28;20431;-76
2022/03/06 07:26:52;;;;;;;2.08;1.77;;;3.70;83.30;;;;;;5072868;28;20060;-75
2022/03/06 07:29:18;;;;;;;4.15;2.10;;;3.80;83.00;;;;;;5068534;28;20357;-75
2022/03/06 07:31:43;;;;;;;2.33;1.70;;;3.90;82.40;;;;;;5062479;28;20025;-74
2022/03/06 07:34:09;;;;;;;4.13;2.33;;;4.10;82.40;;;;;;5063189;28;20145;-76
2022/03/06 07:36:35;;;;;;;2.67;1.90;;;4.30;81.80;;;;;;5059023;28;20124;-76
2022/03/06 07:39:01;;;;;;;2.65;1.92;;;4.40;80.30;;;;;;5072038;28;20466;-77
2022/03/06 07:41:27;;;;;;;2.33;1.80;;;4.50;79.50;;;;;;5064047;28;20037;-76
2022/03/06 07:43:53;;;;;;;2.50;1.88;;;4.60;79.30;;;;;;5066621;28;20025;-75
2022/03/06 07:46:19;;;;;;;2.80;1.90;;;4.60;79.10;;;;;;5057405;28;20032;-75
2022/03/06 07:48:44;;;;;;;3.33;2.05;;;4.70;78.60;;;;;;5068444;28;20492;-76
2022/03/06 07:51:11;;;;;;;2.13;1.77;;;4.80;78.10;;;;;;5056201;28;20025;-75
2022/03/06 07:53:37;;;;;;;2.67;1.90;;;4.90;78.30;;;;;;5060293;28;20099;-75
2022/03/06 07:56:02;;;;;;;2.80;2.00;;;4.90;77.40;;;;;;5056126;28;20040;-75
2022/03/06 07:58:28;;;;;;;3.33;2.40;;;5.00;77.70;;;;;;5061137;28;20024;-75
2022/03/06 08:00:54;;;;;;;3.47;2.20;;;5.20;78.30;;;;;;5063175;28;20457;-77
2022/03/06 08:03:20;;;;;;;5.07;2.58;;;5.40;77.70;;;;;;5066341;28;20025;-77
2022/03/06 08:05:46;;;;;;;3.50;2.33;;;5.60;76.80;;;;;;5062890;28;20033;-78
2022/03/06 08:08:12;;;;;;;3.72;2.40;;;5.90;76.30;;;;;;5069691;28;20035;-74
2022/03/06 08:10:38;;;;;;;3.85;2.40;;;6.10;75.30;;;;;;5063682;28;20074;-76
2022/03/06 08:13:03;;;;;;;3.13;2.22;;;6.20;74.60;;;;;;5063135;28;20028;-75
2022/03/06 08:15:29;;;;;;;3.03;2.30;;;6.20;74.30;;;;;;5072126;28;20036;-76
2022/03/06 08:17:55;;;;;;;5.50;2.67;;;6.40;75.60;;;;;;5063032;28;20021;-76
2022/03/06 08:20:21;;;;;;;4.88;3.00;;;6.60;74.80;;;;;;5062075;28;20032;-77
2022/03/06 08:22:47;;;;;;;5.03;2.90;;;6.80;73.70;;;;;;5064842;28;20044;-75
2022/03/06 08:25:13;;;;;;;4.47;2.80;;;7.10;72.70;;;;;;5069638;28;20049;-76
2022/03/06 08:27:39;;;;;;;4.03;2.58;;;7.30;72.70;;;;;;5042584;28;20117;-76
2022/03/06 08:30:07;;;;;;;3.53;2.38;;;7.60;72.20;;;;;;5044759;28;20107;-76
2022/03/06 08:32:33;;;;;;;4.70;2.67;;;7.80;71.10;;;;;;5029039;28;20036;-75
2022/03/06 08:35:01;;;;;;;4.88;3.00;;;8.10;72.00;;;;;;5026786;28;20364;-77
2022/03/06 08:37:26;;;;;;;4.40;2.92;;;8.60;73.80;;;;;;5026907;28;20131;-76
2022/03/06 14:40:14;;;;;;;3.35;2.08;;;2.60;58.90;;;;;;5067665;27;1778353;-73
2022/03/06 14:42:40;;;;;;;4.35;1.98;;;2.40;59.70;;;;;;5131860;28;20106;-73
2022/03/06 14:45:06;;;;;;;4.63;2.25;;;2.40;60.30;;;;;;5130724;28;20031;-74
2022/03/06 14:47:32;;;;;;;6.63;2.78;;;2.40;61.40;;;;;;5123495;27;20024;-73
2022/03/06 14:49:58;;;;;;;8.35;3.53;;;2.40;62.40;;;;;;5127236;28;20080;-73
2022/03/06 14:52:24;;;;;;;9.65;3.90;;;2.50;62.90;;;;;;5131723;27;20037;-73
2022/03/06 14:54:50;;;;;;;8.00;3.47;;;2.50;63.30;;;;;;5130358;28;20358;-73
2022/03/06 14:57:16;;;;;;;10.80;4.22;;;2.60;63.40;;;;;;5131510;27;20136;-73
2022/03/06 14:59:42;;;;;;;10.00;4.30;;;2.60;63.40;;;;;;5130455;28;20084;-73
2022/03/06 15:02:08;;;;;;;7.50;3.38;;;2.60;63.90;;;;;;5130396;28;20024;-75
2022/03/06 15:04:34;;;;;;;6.97;2.90;;;2.70;64.10;;;;;;5130097;28;20030;-73
2022/03/06 15:06:59;;;;;;;6.85;3.33;;;2.70;63.90;;;;;;5126706;28;20024;-73
2022/03/06 15:09:25;;;;;;;7.18;3.28;;;2.80;63.80;;;;;;5115798;27;20103;-74
2022/03/06 15:11:51;;;;;;;8.68;3.80;;;2.80;63.80;;;;;;5111241;28;20027;-73
2022/03/06 15:14:17;;;;;;;7.32;2.97;;;2.80;64.00;;;;;;5114343;28;20099;-74
2022/03/06 15:16:42;;;;;;;6.55;2.70;;;2.80;63.90;;;;;;5129793;28;20069;-75
2022/03/06 15:19:11;;;;;;;6.90;2.72;;;2.80;63.80;;;;;;5130079;28;20031;-73
2022/03/06 15:21:37;;;;;;;4.70;2.50;;;2.80;63.80;;;;;;5131745;27;20043;-74
2022/03/06 15:24:03;;;;;;;4.68;2.35;;;2.80;63.80;;;;;;5129955;28;20035;-74
2022/03/06 15:26:29;;;;;;;4.65;2.30;;;2.80;63.80;;;;;;5129995;28;20027;-74
2022/03/06 15:28:55;;;;;;;3.83;2.40;;;2.80;63.80;;;;;;5129940;28;20081;-74
2022/03/06 15:31:21;;;;;;;3.30;1.80;;;2.80;63.80;;;;;;5130858;27;20357;-74
2022/03/06 15:33:47;;;;;;;4.45;2.10;;;2.80;63.80;;;;;;5129541;28;20016;-74
2022/03/06 15:36:13;;;;;;;3.08;1.60;;;2.80;63.80;;;;;;5129810;28;20030;-73
2022/03/06 15:38:39;;;;;;;2.65;1.83;;;2.70;63.90;;;;;;5129197;27;20051;-73
2022/03/06 15:41:05;;;;;;;2.55;1.85;;;2.70;63.70;;;;;;5130931;28;20036;-73
2022/03/06 15:43:32;;;;;;;2.38;1.80;;;2.70;63.70;;;;;;5130819;27;20031;-73
2022/03/06 15:45:58;;;;;;;3.03;1.85;;;2.60;64.40;;;;;;5129230;28;20031;-74
2022/03/06 15:48:24;;;;;;;2.58;1.90;;;2.60;63.90;;;;;;5129512;28;20028;-73
2022/03/06 15:50:51;;;;;;;4.20;2.40;;;2.60;64.00;;;;;;5117622;28;20042;-74
2022/03/06 15:53:18;;;;;;;2.22;1.83;;;2.60;64.00;;;;;;5112339;28;20038;-73
2022/03/06 15:55:44;;;;;;;3.22;1.80;;;2.60;64.10;;;;;;5101828;28;20063;-73
2022/03/06 15:58:10;;;;;;;5.13;2.28;;;2.60;64.10;;;;;;5107932;27;20031;-72
2022/03/06 16:00:36;;;;;;;3.25;2.25;;;2.50;64.20;;;;;;5106534;28;20027;-73
2022/03/06 16:03:02;;;;;;;4.03;2.22;;;2.50;64.70;;;;;;5115314;28;20081;-73
2022/03/06 16:05:28;;;;;;;3.13;2.10;;;2.50;64.30;;;;;;5115487;28;20483;-73
2022/03/06 16:07:54;;;;;;;2.78;2.13;;;2.50;64.40;;;;;;5115299;28;20115;-74
2022/03/06 16:10:20;;;;;;;3.70;2.53;;;2.50;64.30;;;;;;5116632;28;20087;-73
2022/03/06 16:12:47;;;;;;;3.97;2.53;;;2.50;64.40;;;;;;5115090;28;20034;-74
2022/03/06 16:15:13;;;;;;;5.10;2.85;;;2.50;64.50;;;;;;5115031;28;20072;-73
2022/03/06 16:17:38;;;;;;;4.95;2.97;;;2.40;64.40;;;;;;5115146;28;20020;-72
2022/03/06 16:20:05;;;;;;;5.22;3.20;;;2.40;64.60;;;;;;5116102;28;20038;-73
2022/03/06 16:22:31;;;;;;;6.20;2.85;;;2.40;64.50;;;;;;5114882;28;20389;-73
2022/03/06 16:24:57;;;;;;;4.60;2.95;;;2.40;64.60;;;;;;5114242;28;20100;-73
2022/03/06 16:27:23;;;;;;;4.32;2.83;;;2.30;64.60;;;;;;5097942;28;20028;-73
2022/03/06 16:29:49;;;;;;;4.25;2.70;;;2.30;64.70;;;;;;5115963;28;20034;-76
2022/03/06 16:32:15;;;;;;;6.25;3.70;;;2.30;64.80;;;;;;5111584;28;20414;-75
2022/03/06 16:34:43;;;;;;;6.75;4.00;;;2.30;64.80;;;;;;5113491;28;20122;-74
2022/03/06 16:37:09;;;;;;;6.72;3.53;;;2.20;64.80;;;;;;5112358;28;20077;-75
2022/03/06 16:39:35;;;;;;;8.05;3.80;;;2.20;64.80;;;;;;5111676;28;20089;-75
2022/03/06 16:42:04;;;;;;;4.88;3.00;;;2.20;64.80;;;;;;5112476;28;20110;-74
2022/03/06 16:44:32;;;;;;;5.47;3.30;;;2.20;64.90;;;;;;5111806;28;20030;-74
2022/03/06 16:46:58;;;;;;;4.07;2.65;;;2.20;65.00;;;;;;5113759;28;20043;-74
2022/03/06 16:49:24;;;;;;;4.45;2.63;;;2.20;65.10;;;;;;5112239;28;20055;-76
2022/03/06 16:51:50;;;;;;;4.15;2.35;;;2.20;65.10;;;;;;5112014;28;20034;-75
2022/03/06 16:54:20;;;;;;;4.18;2.38;;;2.20;65.10;;;;;;5111991;28;20023;-75
2022/03/06 16:56:47;;;;;;;4.57;2.45;;;2.20;65.10;;;;;;5111606;28;20023;-74
2022/03/06 16:59:13;;;;;;;12.43;5.57;;;2.20;65.10;;;;;;5111909;28;20476;-75
2022/03/06 17:01:39;;;;;;;16.55;7.20;;;2.10;65.20;;;;;;5110674;28;20532;-76
2022/03/06 17:04:05;;;;;;;26.85;12.48;;;2.10;65.30;;;;;;5111888;28;20032;-75
2022/03/06 17:06:31;;;;;;;27.20;12.10;;;2.10;65.40;;;;;;5113206;28;20020;-75
2022/03/06 17:08:58;;;;;;;21.48;9.75;;;2.10;65.50;;;;;;5111815;28;20039;-74
2022/03/06 17:11:24;;;;;;;18.42;8.35;;;2.10;65.50;;;;;;5112522;28;20062;-75
2022/03/06 17:13:50;;;;;;;19.10;7.60;;;2.10;65.60;;;;;;5081741;28;20052;-74
2022/03/06 17:16:16;;;;;;;19.45;9.52;;;2.10;65.90;;;;;;5082010;28;20063;-74
2022/03/06 17:18:42;;;;;;;22.35;11.05;;;2.00;65.80;;;;;;5079258;28;20035;-77
2022/03/06 17:21:08;;;;;;;22.75;11.27;;;2.00;65.80;;;;;;5066281;28;20048;-73
2022/03/06 17:23:33;;;;;;;24.75;12.55;;;2.00;65.90;;;;;;5081896;28;20115;-76
2022/03/06 17:26:03;;;;;;;22.80;12.05;;;2.00;65.90;;;;;;5079288;28;20111;-76
2022/03/06 17:28:30;;;;;;;23.02;13.10;;;2.00;66.00;;;;;;5082571;28;20480;-75
2022/03/06 17:30:56;;;;;;;22.80;13.05;;;2.00;66.10;;;;;;5084078;28;20028;-75
2022/03/06 17:33:21;;;;;;;19.38;11.50;;;1.90;66.20;;;;;;5081646;28;20091;-75
2022/03/06 17:35:47;;;;;;;16.17;9.45;;;1.90;66.20;;;;;;5079324;28;20082;-74
2022/03/06 17:38:14;;;;;;;15.32;8.65;;;1.90;66.30;;;;;;5079172;28;20043;-73
2022/03/06 17:40:41;;;;;;;15.43;7.85;;;1.90;66.30;;;;;;5079086;28;20081;-75
2022/03/06 17:43:08;;;;;;;12.45;6.70;;;1.90;66.40;;;;;;5079458;28;20524;-74
2022/03/06 17:45:35;;;;;;;9.57;5.88;;;1.90;66.40;;;;;;5081621;28;20393;-73
2022/03/06 17:48:02;;;;;;;8.02;5.07;;;1.90;66.40;;;;;;5082671;28;20027;-74
2022/03/06 17:50:28;;;;;;;8.63;4.75;;;1.90;66.60;;;;;;5083619;28;20043;-76
2022/03/06 17:52:54;;;;;;;8.32;4.43;;;1.90;66.70;;;;;;5073316;28;20039;-74
2022/03/06 17:55:20;;;;;;;6.05;3.70;;;1.90;66.80;;;;;;5084034;28;20028;-74
2022/03/06 17:57:46;;;;;;;6.22;3.58;;;1.90;66.90;;;;;;5079385;28;20029;-75
2022/03/06 18:00:12;;;;;;;5.90;3.83;;;1.90;66.90;;;;;;5079709;28;20500;-74
2022/03/06 18:02:38;;;;;;;6.55;3.80;;;1.80;67.00;;;;;;5077272;28;20025;-76
2022/03/06 18:05:04;;;;;;;6.10;3.85;;;1.80;67.50;;;;;;5081841;28;20039;-75
2022/03/06 18:07:30;;;;;;;9.13;4.70;;;1.80;67.80;;;;;;5075006;28;20035;-74
2022/03/06 18:09:56;;;;;;;7.43;4.50;;;1.80;67.70;;;;;;5083787;28;20028;-76
2022/03/06 18:12:22;;;;;;;7.00;4.00;;;1.80;67.90;;;;;;5085413;28;20566;-74
2022/03/06 18:14:48;;;;;;;6.88;3.78;;;1.70;68.00;;;;;;5075531;28;20024;-77
2022/03/06 18:17:14;;;;;;;5.32;3.40;;;1.70;68.00;;;;;;5081810;28;20039;-76
2022/03/06 18:19:40;;;;;;;6.63;3.60;;;1.70;68.40;;;;;;5079276;28;20033;-74
2022/03/06 18:22:06;;;;;;;8.25;4.32;;;1.70;68.90;;;;;;5075608;28;20039;-76
2022/03/06 18:24:35;;;;;;;8.63;4.70;;;1.70;69.20;;;;;;5082109;28;20469;-74
2022/03/06 18:27:02;;;;;;;8.20;4.05;;;1.70;69.10;;;;;;5080465;28;20028;-74
2022/03/06 18:29:27;;;;;;;8.70;4.63;;;1.70;69.10;;;;;;5079014;28;20031;-74
2022/03/06 18:31:53;;;;;;;9.93;5.30;;;1.70;69.10;;;;;;5080598;28;20073;-75
2022/03/06 18:34:21;;;;;;;12.73;6.05;;;1.70;69.40;;;;;;5079089;28;20034;-73
2022/03/06 18:36:49;;;;;;;12.95;6.60;;;1.70;69.90;;;;;;5089967;28;20189;-75
2022/03/06 18:39:16;;;;;;;15.05;7.90;;;1.60;70.50;;;;;;5090788;28;20052;-74
2022/03/06 18:41:43;;;;;;;16.90;7.97;;;1.60;70.80;;;;;;5089742;28;20044;-73
2022/03/06 18:44:15;;;;;;;19.02;9.43;;;1.60;71.00;;;;;;5089731;28;20062;-76
2022/03/06 18:46:41;;;;;;;24.27;11.63;;;1.60;70.70;;;;;;5091670;28;20028;-75
2022/03/06 18:49:07;;;;;;;22.33;11.50;;;1.50;71.30;;;;;;5090226;28;20078;-75
2022/03/06 18:51:35;;;;;;;23.85;11.43;;;1.50;71.10;;;;;;5091045;28;20062;-75